sensor_id;sensor_type;location;lat;lon;timestamp;P1;durP1;ratioP1;P2;durP2;ratioP2
28547;SDS011;68292;49.600;8.746;2023-11-18T09:43:31;5.67;;;5.17;;
28547;SDS011;68292;49.600;8.746;2023-11-18T09:46:09;6.63;;;5.60;;
28547;SDS011;68292;49.600;8.746;2023-11-18T09:48:43;8.97;;;6.43;;
28547;SDS011;68292;49.600;8.746;2023-11-18T09:51:19;6.80;;;6.10;;
28547;SDS011;68292;49.600;8.746;2023-11-18T09:53:49;6.17;;;5.57;;
28547;SDS011;68292;49.600;8.746;2023-11-18T09:56:25;7.00;;;5.83;;
28547;SDS011;68292;49.600;8.746;2023-11-18T09:59:10;6.10;;;5.50;;
28547;SDS011;68292;49.600;8.746;2023-11-18T10:01:43;6.10;;;5.50;;
28547;SDS011;68292;49.600;8.746;2023-11-18T10:04:14;7.27;;;5.80;;
28547;SDS011;68292;49.600;8.746;2023-11-18T10:06:45;7.00;;;6.40;;
28547;SDS011;68292;49.600;8.746;2023-11-18T10:09:16;6.60;;;5.40;;
28547;SDS011;68292;49.600;8.746;2023-11-18T10:11:55;6.97;;;6.33;;
28547;SDS011;68292;49.600;8.746;2023-11-18T10:14:34;7.70;;;5.03;;
28547;SDS011;68292;49.600;8.746;2023-11-18T10:17:03;7.27;;;4.93;;
28547;SDS011;68292;49.600;8.746;2023-11-18T10:19:49;4.70;;;4.10;;
28547;SDS011;68292;49.600;8.746;2023-11-18T10:22:21;4.40;;;4.00;;
28547;SDS011;68292;49.600;8.746;2023-11-18T10:24:52;4.47;;;4.07;;
28547;SDS011;68292;49.600;8.746;2023-11-18T10:27:26;4.83;;;4.33;;
28547;SDS011;68292;49.600;8.746;2023-11-18T10:29:57;4.87;;;4.47;;
28547;SDS011;68292;49.600;8.746;2023-11-18T10:32:30;6.17;;;4.20;;
28547;SDS011;68292;49.600;8.746;2023-11-18T10:35:03;4.40;;;4.00;;
28547;SDS011;68292;49.600;8.746;2023-11-18T10:37:33;4.77;;;3.73;;
28547;SDS011;68292;49.600;8.746;2023-11-18T10:40:10;4.53;;;4.20;;
28547;SDS011;68292;49.600;8.746;2023-11-18T10:42:42;4.40;;;4.00;;
28547;SDS011;68292;49.600;8.746;2023-11-18T10:45:24;5.27;;;4.17;;
28547;SDS011;68292;49.600;8.746;2023-11-18T10:47:54;5.73;;;4.30;;
28547;SDS011;68292;49.600;8.746;2023-11-18T10:50:24;4.80;;;4.40;;
28547;SDS011;68292;49.600;8.746;2023-11-18T10:52:59;5.37;;;4.70;;
28547;SDS011;68292;49.600;8.746;2023-11-18T10:55:38;8.53;;;6.93;;
28547;SDS011;68292;49.600;8.746;2023-11-18T10:58:08;7.67;;;6.30;;
28547;SDS011;68292;49.600;8.746;2023-11-18T11:00:46;8.37;;;6.60;;
28547;SDS011;68292;49.600;8.746;2023-11-18T11:03:16;10.63;;;7.70;;
28547;SDS011;68292;49.600;8.746;2023-11-18T11:05:46;11.30;;;9.30;;
28547;SDS011;68292;49.600;8.746;2023-11-18T11:08:16;8.10;;;7.20;;
28547;SDS011;68292;49.600;8.746;2023-11-18T11:11:01;7.03;;;5.57;;
28547;SDS011;68292;49.600;8.746;2023-11-18T11:13:35;6.77;;;5.53;;
28547;SDS011;68292;49.600;8.746;2023-11-18T11:16:07;5.53;;;5.03;;
28547;SDS011;68292;49.600;8.746;2023-11-18T11:18:40;3.93;;;3.60;;
28547;SDS011;68292;49.600;8.746;2023-11-18T11:21:20;4.50;;;3.50;;
28547;SDS011;68292;49.600;8.746;2023-11-18T11:23:55;3.03;;;2.83;;
28547;SDS011;68292;49.600;8.746;2023-11-18T11:26:38;4.53;;;2.67;;
28547;SDS011;68292;49.600;8.746;2023-11-18T11:29:23;3.70;;;2.40;;
28547;SDS011;68292;49.600;8.746;2023-11-18T11:32:02;2.87;;;2.67;;
28547;SDS011;68292;49.600;8.746;2023-11-18T11:34:40;3.53;;;2.90;;
28547;SDS011;68292;49.600;8.746;2023-11-18T11:37:21;2.60;;;2.40;;
28547;SDS011;68292;49.600;8.746;2023-11-18T11:39:53;6.20;;;2.47;;
28547;SDS011;68292;49.600;8.746;2023-11-18T11:42:25;3.17;;;2.40;;
28547;SDS011;68292;49.600;8.746;2023-11-18T11:44:55;3.10;;;2.70;;
28547;SDS011;68292;49.600;8.746;2023-11-18T11:47:26;3.00;;;2.70;;
28547;SDS011;68292;49.600;8.746;2023-11-18T11:50:06;2.67;;;2.47;;
28547;SDS011;68292;49.600;8.746;2023-11-18T11:52:40;2.60;;;2.40;;
28547;SDS011;68292;49.600;8.746;2023-11-18T11:55:15;5.07;;;2.23;;
28547;SDS011;68292;49.600;8.746;2023-11-18T11:57:55;3.33;;;2.53;;
28547;SDS011;68292;49.600;8.746;2023-11-18T12:00:25;6.03;;;5.27;;
28547;SDS011;68292;49.600;8.746;2023-11-18T12:03:02;8.97;;;6.43;;
28547;SDS011;68292;49.600;8.746;2023-11-18T12:05:44;5.80;;;4.83;;
28547;SDS011;68292;49.600;8.746;2023-11-18T12:08:16;7.30;;;6.57;;
28547;SDS011;68292;49.600;8.746;2023-11-18T12:10:50;5.77;;;4.70;;
28547;SDS011;68292;49.600;8.746;2023-11-18T12:13:22;5.90;;;5.07;;
28547;SDS011;68292;49.600;8.746;2023-11-18T12:15:53;5.63;;;4.23;;
28547;SDS011;68292;49.600;8.746;2023-11-18T12:18:26;3.07;;;2.80;;
28547;SDS011;68292;49.600;8.746;2023-11-18T12:21:00;3.53;;;2.77;;
28547;SDS011;68292;49.600;8.746;2023-11-18T12:23:29;2.60;;;2.30;;
28547;SDS011;68292;49.600;8.746;2023-11-18T12:26:01;2.57;;;2.37;;
28547;SDS011;68292;49.600;8.746;2023-11-18T12:32:11;2.10;;;2.00;;
28547;SDS011;68292;49.600;8.746;2023-11-18T12:35:16;3.33;;;2.60;;
28547;SDS011;68292;49.600;8.746;2023-11-18T12:37:54;3.27;;;3.07;;
28547;SDS011;68292;49.600;8.746;2023-11-18T12:40:56;5.23;;;2.87;;
28547;SDS011;68292;49.600;8.746;2023-11-18T12:43:33;3.80;;;3.50;;
28547;SDS011;68292;49.600;8.746;2023-11-18T12:46:29;4.80;;;3.00;;
28547;SDS011;68292;49.600;8.746;2023-11-18T12:49:17;3.33;;;3.00;;
28547;SDS011;68292;49.600;8.746;2023-11-18T12:51:51;3.53;;;3.23;;
28547;SDS011;68292;49.600;8.746;2023-11-18T12:54:23;6.20;;;3.80;;
28547;SDS011;68292;49.600;8.746;2023-11-18T12:56:54;5.67;;;4.47;;
28547;SDS011;68292;49.600;8.746;2023-11-18T12:59:23;4.60;;;4.13;;
28547;SDS011;68292;49.600;8.746;2023-11-18T13:01:52;3.73;;;2.93;;
28547;SDS011;68292;49.600;8.746;2023-11-18T13:04:24;3.00;;;2.80;;
28547;SDS011;68292;49.600;8.746;2023-11-18T13:06:56;3.97;;;3.67;;
28547;SDS011;68292;49.600;8.746;2023-11-18T13:09:26;3.67;;;3.20;;
28547;SDS011;68292;49.600;8.746;2023-11-18T13:11:59;4.53;;;2.90;;
28547;SDS011;68292;49.600;8.746;2023-11-18T13:14:31;6.80;;;3.70;;
28547;SDS011;68292;49.600;8.746;2023-11-18T13:17:03;3.70;;;3.37;;
28547;SDS011;68292;49.600;8.746;2023-11-18T13:19:37;4.13;;;3.70;;
28547;SDS011;68292;49.600;8.746;2023-11-18T13:22:08;4.93;;;4.43;;
28547;SDS011;68292;49.600;8.746;2023-11-18T13:24:38;3.67;;;2.93;;
28547;SDS011;68292;49.600;8.746;2023-11-18T13:27:10;3.10;;;2.80;;
28547;SDS011;68292;49.600;8.746;2023-11-18T13:29:43;4.97;;;2.60;;
28547;SDS011;68292;49.600;8.746;2023-11-18T13:32:15;3.10;;;2.60;;
28547;SDS011;68292;49.600;8.746;2023-11-18T13:34:45;3.53;;;2.40;;
28547;SDS011;68292;49.600;8.746;2023-11-18T13:37:15;2.63;;;2.43;;
28547;SDS011;68292;49.600;8.746;2023-11-18T13:39:53;2.57;;;2.27;;
28547;SDS011;68292;49.600;8.746;2023-11-18T13:42:22;2.53;;;2.33;;
28547;SDS011;68292;49.600;8.746;2023-11-18T13:44:58;2.83;;;2.63;;
28547;SDS011;68292;49.600;8.746;2023-11-18T13:47:27;4.20;;;2.50;;
28547;SDS011;68292;49.600;8.746;2023-11-18T13:49:58;2.63;;;2.40;;
28547;SDS011;68292;49.600;8.746;2023-11-18T13:52:29;3.33;;;2.90;;
28547;SDS011;68292;49.600;8.746;2023-11-18T13:54:58;3.87;;;2.60;;
28547;SDS011;68292;49.600;8.746;2023-11-18T13:57:27;2.80;;;2.60;;
28547;SDS011;68292;49.600;8.746;2023-11-18T13:59:55;2.70;;;2.50;;
28547;SDS011;68292;49.600;8.746;2023-11-18T14:02:26;3.50;;;2.30;;
28547;SDS011;68292;49.600;8.746;2023-11-18T14:04:56;2.93;;;2.50;;
28547;SDS011;68292;49.600;8.746;2023-11-18T14:07:25;5.00;;;2.70;;
28547;SDS011;68292;49.600;8.746;2023-11-18T14:09:56;4.20;;;2.67;;
28547;SDS011;68292;49.600;8.746;2023-11-18T14:12:26;3.30;;;3.00;;
28547;SDS011;68292;49.600;8.746;2023-11-18T14:14:55;2.97;;;2.77;;
28547;SDS011;68292;49.600;8.746;2023-11-18T14:17:24;3.17;;;2.67;;
28547;SDS011;68292;49.600;8.746;2023-11-18T14:19:52;2.63;;;2.43;;
28547;SDS011;68292;49.600;8.746;2023-11-18T14:22:21;2.77;;;1.93;;
28547;SDS011;68292;49.600;8.746;2023-11-18T14:24:50;2.13;;;2.00;;
28547;SDS011;68292;49.600;8.746;2023-11-18T14:27:21;2.13;;;1.80;;
28547;SDS011;68292;49.600;8.746;2023-11-18T14:29:50;4.00;;;1.63;;
28547;SDS011;68292;49.600;8.746;2023-11-18T14:32:19;2.80;;;2.10;;
28547;SDS011;68292;49.600;8.746;2023-11-18T14:34:47;2.80;;;2.43;;
28547;SDS011;68292;49.600;8.746;2023-11-18T14:37:16;2.67;;;2.33;;
28547;SDS011;68292;49.600;8.746;2023-11-18T14:39:46;3.47;;;2.23;;
28547;SDS011;68292;49.600;8.746;2023-11-18T14:42:15;6.27;;;2.90;;
28547;SDS011;68292;49.600;8.746;2023-11-18T14:44:45;5.60;;;4.47;;
28547;SDS011;68292;49.600;8.746;2023-11-18T14:47:14;6.30;;;5.50;;
28547;SDS011;68292;49.600;8.746;2023-11-18T14:49:43;8.40;;;6.23;;
28547;SDS011;68292;49.600;8.746;2023-11-18T14:52:12;9.13;;;6.27;;
28547;SDS011;68292;49.600;8.746;2023-11-18T14:54:41;6.20;;;5.60;;
28547;SDS011;68292;49.600;8.746;2023-11-18T14:57:10;6.57;;;6.00;;
28547;SDS011;68292;49.600;8.746;2023-11-18T14:59:39;8.00;;;7.30;;
28547;SDS011;68292;49.600;8.746;2023-11-18T15:02:10;7.97;;;7.17;;
28547;SDS011;68292;49.600;8.746;2023-11-18T15:04:39;7.40;;;6.70;;
28547;SDS011;68292;49.600;8.746;2023-11-18T15:07:09;6.37;;;4.60;;
28547;SDS011;68292;49.600;8.746;2023-11-18T15:09:38;5.67;;;5.17;;
28547;SDS011;68292;49.600;8.746;2023-11-18T15:12:09;6.87;;;6.27;;
28547;SDS011;68292;49.600;8.746;2023-11-18T15:14:38;6.07;;;5.40;;
28547;SDS011;68292;49.600;8.746;2023-11-18T15:17:07;3.73;;;3.40;;
28547;SDS011;68292;49.600;8.746;2023-11-18T15:19:37;3.50;;;3.20;;
28547;SDS011;68292;49.600;8.746;2023-11-18T15:22:06;2.50;;;2.30;;
28547;SDS011;68292;49.600;8.746;2023-11-18T15:24:36;2.90;;;2.70;;
28547;SDS011;68292;49.600;8.746;2023-11-18T15:27:05;4.33;;;2.60;;
28547;SDS011;68292;49.600;8.746;2023-11-18T15:29:34;2.53;;;2.33;;
28547;SDS011;68292;49.600;8.746;2023-11-18T15:32:05;2.60;;;2.40;;
28547;SDS011;68292;49.600;8.746;2023-11-18T15:34:35;2.73;;;2.47;;
28547;SDS011;68292;49.600;8.746;2023-11-18T15:37:05;2.33;;;2.13;;
28547;SDS011;68292;49.600;8.746;2023-11-18T15:39:36;2.20;;;2.10;;
28547;SDS011;68292;49.600;8.746;2023-11-18T15:42:04;2.27;;;2.07;;
28547;SDS011;68292;49.600;8.746;2023-11-18T15:44:33;2.43;;;2.23;;
28547;SDS011;68292;49.600;8.746;2023-11-18T15:47:02;4.60;;;2.10;;
28547;SDS011;68292;49.600;8.746;2023-11-18T15:49:32;3.67;;;2.43;;
28547;SDS011;68292;49.600;8.746;2023-11-18T15:52:02;3.67;;;2.10;;
28547;SDS011;68292;49.600;8.746;2023-11-18T15:54:35;3.50;;;2.23;;
28547;SDS011;68292;49.600;8.746;2023-11-18T15:57:04;2.43;;;2.23;;
28547;SDS011;68292;49.600;8.746;2023-11-18T15:59:33;4.87;;;2.70;;
28547;SDS011;68292;49.600;8.746;2023-11-18T16:02:02;4.47;;;2.60;;
28547;SDS011;68292;49.600;8.746;2023-11-18T16:04:32;2.73;;;2.53;;
28547;SDS011;68292;49.600;8.746;2023-11-18T16:07:01;2.60;;;2.40;;
28547;SDS011;68292;49.600;8.746;2023-11-18T16:09:29;2.87;;;2.67;;
28547;SDS011;68292;49.600;8.746;2023-11-18T16:12:00;2.97;;;2.57;;
28547;SDS011;68292;49.600;8.746;2023-11-18T16:14:29;3.43;;;3.10;;
28547;SDS011;68292;49.600;8.746;2023-11-18T16:16:58;3.43;;;3.13;;
28547;SDS011;68292;49.600;8.746;2023-11-18T16:19:27;2.90;;;2.70;;
28547;SDS011;68292;49.600;8.746;2023-11-18T16:21:56;4.10;;;2.53;;
28547;SDS011;68292;49.600;8.746;2023-11-18T16:24:26;3.30;;;3.00;;
28547;SDS011;68292;49.600;8.746;2023-11-18T16:26:55;4.13;;;3.13;;
28547;SDS011;68292;49.600;8.746;2023-11-18T16:29:25;3.77;;;3.47;;
28547;SDS011;68292;49.600;8.746;2023-11-18T16:31:54;3.77;;;3.47;;
28547;SDS011;68292;49.600;8.746;2023-11-18T16:34:23;3.37;;;2.87;;
28547;SDS011;68292;49.600;8.746;2023-11-18T16:36:52;5.07;;;3.57;;
28547;SDS011;68292;49.600;8.746;2023-11-18T16:39:23;6.00;;;4.10;;
28547;SDS011;68292;49.600;8.746;2023-11-18T16:41:52;6.57;;;5.97;;
28547;SDS011;68292;49.600;8.746;2023-11-18T16:44:21;6.17;;;5.57;;
28547;SDS011;68292;49.600;8.746;2023-11-18T16:46:52;6.90;;;5.40;;
28547;SDS011;68292;49.600;8.746;2023-11-18T16:49:20;8.83;;;8.03;;
28547;SDS011;68292;49.600;8.746;2023-11-18T16:51:50;8.93;;;7.90;;
28547;SDS011;68292;49.600;8.746;2023-11-18T16:54:25;8.37;;;6.77;;
28547;SDS011;68292;49.600;8.746;2023-11-18T16:57:06;7.70;;;6.90;;
28547;SDS011;68292;49.600;8.746;2023-11-18T16:59:35;7.23;;;6.40;;
28547;SDS011;68292;49.600;8.746;2023-11-18T17:02:05;7.00;;;6.30;;
28547;SDS011;68292;49.600;8.746;2023-11-18T17:04:33;7.53;;;5.80;;
28547;SDS011;68292;49.600;8.746;2023-11-18T17:07:03;5.73;;;5.03;;
28547;SDS011;68292;49.600;8.746;2023-11-18T17:09:32;4.27;;;3.90;;
28547;SDS011;68292;49.600;8.746;2023-11-18T17:12:01;4.17;;;3.77;;
28547;SDS011;68292;49.600;8.746;2023-11-18T17:14:30;3.13;;;2.90;;
28547;SDS011;68292;49.600;8.746;2023-11-18T17:16:59;4.00;;;3.37;;
28547;SDS011;68292;49.600;8.746;2023-11-18T17:19:29;4.17;;;3.80;;
28547;SDS011;68292;49.600;8.746;2023-11-18T17:21:59;3.73;;;3.43;;
28547;SDS011;68292;49.600;8.746;2023-11-18T17:24:27;3.87;;;2.93;;
28547;SDS011;68292;49.600;8.746;2023-11-18T17:26:56;3.70;;;3.37;;
28547;SDS011;68292;49.600;8.746;2023-11-18T17:29:26;4.07;;;3.70;;
28547;SDS011;68292;49.600;8.746;2023-11-18T17:31:54;4.67;;;4.27;;
28547;SDS011;68292;49.600;8.746;2023-11-18T17:34:23;6.50;;;4.90;;
28547;SDS011;68292;49.600;8.746;2023-11-18T17:36:56;5.20;;;4.67;;
28547;SDS011;68292;49.600;8.746;2023-11-18T17:39:25;4.93;;;4.43;;
28547;SDS011;68292;49.600;8.746;2023-11-18T17:41:53;5.30;;;3.83;;
28547;SDS011;68292;49.600;8.746;2023-11-18T17:44:23;4.40;;;4.10;;
28547;SDS011;68292;49.600;8.746;2023-11-18T17:46:51;4.63;;;4.23;;
28547;SDS011;68292;49.600;8.746;2023-11-18T17:49:21;4.60;;;3.80;;
28547;SDS011;68292;49.600;8.746;2023-11-18T17:51:51;9.67;;;7.17;;
28547;SDS011;68292;49.600;8.746;2023-11-18T17:54:21;10.60;;;9.50;;
28547;SDS011;68292;49.600;8.746;2023-11-18T17:56:52;7.03;;;6.07;;
28547;SDS011;68292;49.600;8.746;2023-11-18T17:59:21;5.23;;;4.73;;
28547;SDS011;68292;49.600;8.746;2023-11-18T18:01:50;10.47;;;8.50;;
28547;SDS011;68292;49.600;8.746;2023-11-18T18:04:20;5.30;;;4.47;;
28547;SDS011;68292;49.600;8.746;2023-11-18T18:06:49;4.60;;;4.20;;
28547;SDS011;68292;49.600;8.746;2023-11-18T18:09:18;3.43;;;3.13;;
28547;SDS011;68292;49.600;8.746;2023-11-18T18:11:52;2.80;;;2.60;;
28547;SDS011;68292;49.600;8.746;2023-11-18T18:14:21;2.97;;;2.50;;
28547;SDS011;68292;49.600;8.746;2023-11-18T18:16:49;3.23;;;2.33;;
28547;SDS011;68292;49.600;8.746;2023-11-18T18:19:18;3.03;;;2.33;;
28547;SDS011;68292;49.600;8.746;2023-11-18T18:21:47;3.20;;;2.90;;
28547;SDS011;68292;49.600;8.746;2023-11-18T18:24:16;3.17;;;2.30;;
28547;SDS011;68292;49.600;8.746;2023-11-18T18:26:45;2.30;;;2.10;;
28547;SDS011;68292;49.600;8.746;2023-11-18T18:29:15;2.60;;;2.37;;
28547;SDS011;68292;49.600;8.746;2023-11-18T18:31:44;2.50;;;2.30;;
28547;SDS011;68292;49.600;8.746;2023-11-18T18:34:13;3.20;;;2.50;;
28547;SDS011;68292;49.600;8.746;2023-11-18T18:36:41;2.77;;;2.53;;
28547;SDS011;68292;49.600;8.746;2023-11-18T18:39:10;2.67;;;2.30;;
28547;SDS011;68292;49.600;8.746;2023-11-18T18:41:40;2.47;;;2.27;;
28547;SDS011;68292;49.600;8.746;2023-11-18T18:44:09;4.20;;;2.47;;
28547;SDS011;68292;49.600;8.746;2023-11-18T18:46:39;2.53;;;2.33;;
28547;SDS011;68292;49.600;8.746;2023-11-18T18:49:09;2.10;;;1.90;;
28547;SDS011;68292;49.600;8.746;2023-11-18T18:51:38;2.67;;;2.40;;
28547;SDS011;68292;49.600;8.746;2023-11-18T18:54:06;3.10;;;2.20;;
28547;SDS011;68292;49.600;8.746;2023-11-18T18:56:35;2.70;;;2.50;;
28547;SDS011;68292;49.600;8.746;2023-11-18T18:59:05;3.30;;;2.67;;
28547;SDS011;68292;49.600;8.746;2023-11-18T19:01:39;4.93;;;4.00;;
28547;SDS011;68292;49.600;8.746;2023-11-18T19:04:11;5.30;;;3.43;;
28547;SDS011;68292;49.600;8.746;2023-11-18T19:06:40;7.50;;;6.33;;
28547;SDS011;68292;49.600;8.746;2023-11-18T19:09:09;6.60;;;5.80;;
28547;SDS011;68292;49.600;8.746;2023-11-18T19:11:38;6.37;;;5.20;;
28547;SDS011;68292;49.600;8.746;2023-11-18T19:14:07;9.60;;;7.37;;
28547;SDS011;68292;49.600;8.746;2023-11-18T19:16:36;6.43;;;5.47;;
28547;SDS011;68292;49.600;8.746;2023-11-18T19:19:10;5.90;;;4.73;;
28547;SDS011;68292;49.600;8.746;2023-11-18T19:21:39;6.70;;;4.83;;
28547;SDS011;68292;49.600;8.746;2023-11-18T19:24:07;4.73;;;3.70;;
28547;SDS011;68292;49.600;8.746;2023-11-18T19:26:39;4.33;;;2.63;;
28547;SDS011;68292;49.600;8.746;2023-11-18T19:29:08;5.67;;;3.57;;
28547;SDS011;68292;49.600;8.746;2023-11-18T19:31:37;7.13;;;3.50;;
28547;SDS011;68292;49.600;8.746;2023-11-18T19:34:05;3.47;;;2.50;;
28547;SDS011;68292;49.600;8.746;2023-11-18T19:36:35;2.93;;;2.27;;
28547;SDS011;68292;49.600;8.746;2023-11-18T19:39:04;1.90;;;1.80;;
28547;SDS011;68292;49.600;8.746;2023-11-18T19:41:34;2.33;;;1.70;;
28547;SDS011;68292;49.600;8.746;2023-11-18T19:44:03;4.63;;;1.93;;
28547;SDS011;68292;49.600;8.746;2023-11-18T19:46:32;2.50;;;2.17;;
28547;SDS011;68292;49.600;8.746;2023-11-18T19:49:01;2.40;;;2.20;;
28547;SDS011;68292;49.600;8.746;2023-11-18T19:51:31;2.47;;;2.10;;
28547;SDS011;68292;49.600;8.746;2023-11-18T19:54:02;2.70;;;2.00;;
28547;SDS011;68292;49.600;8.746;2023-11-18T19:56:31;2.83;;;1.90;;
28547;SDS011;68292;49.600;8.746;2023-11-18T19:59:00;2.70;;;1.97;;
28547;SDS011;68292;49.600;8.746;2023-11-18T20:01:31;2.00;;;1.70;;
28547;SDS011;68292;49.600;8.746;2023-11-18T20:04:00;2.63;;;2.00;;
28547;SDS011;68292;49.600;8.746;2023-11-18T20:06:29;1.80;;;1.70;;
28547;SDS011;68292;49.600;8.746;2023-11-18T20:08:57;3.17;;;1.80;;
28547;SDS011;68292;49.600;8.746;2023-11-18T20:11:28;2.03;;;1.83;;
28547;SDS011;68292;49.600;8.746;2023-11-18T20:13:57;2.00;;;1.80;;
28547;SDS011;68292;49.600;8.746;2023-11-18T20:16:29;1.80;;;1.70;;
28547;SDS011;68292;49.600;8.746;2023-11-18T20:18:58;2.70;;;2.47;;
28547;SDS011;68292;49.600;8.746;2023-11-18T20:21:27;2.40;;;2.20;;
28547;SDS011;68292;49.600;8.746;2023-11-18T20:23:56;2.10;;;2.00;;
28547;SDS011;68292;49.600;8.746;2023-11-18T20:26:24;3.63;;;1.90;;
28547;SDS011;68292;49.600;8.746;2023-11-18T20:28:55;2.10;;;1.87;;
28547;SDS011;68292;49.600;8.746;2023-11-18T20:31:24;2.20;;;2.00;;
28547;SDS011;68292;49.600;8.746;2023-11-18T20:33:53;2.20;;;2.00;;
28547;SDS011;68292;49.600;8.746;2023-11-18T20:36:22;2.90;;;2.23;;
28547;SDS011;68292;49.600;8.746;2023-11-18T20:38:50;3.37;;;1.97;;
28547;SDS011;68292;49.600;8.746;2023-11-18T20:41:19;2.60;;;2.40;;
28547;SDS011;68292;49.600;8.746;2023-11-18T20:43:48;2.63;;;2.20;;
28547;SDS011;68292;49.600;8.746;2023-11-18T20:46:18;2.83;;;2.40;;
28547;SDS011;68292;49.600;8.746;2023-11-18T20:48:47;3.27;;;2.67;;
28547;SDS011;68292;49.600;8.746;2023-11-18T20:51:15;2.97;;;2.53;;
28547;SDS011;68292;49.600;8.746;2023-11-18T20:53:44;3.67;;;2.90;;
28547;SDS011;68292;49.600;8.746;2023-11-18T20:56:18;3.63;;;2.27;;
28547;SDS011;68292;49.600;8.746;2023-11-18T20:58:47;3.07;;;2.77;;
28547;SDS011;68292;49.600;8.746;2023-11-18T21:01:18;4.17;;;2.77;;
28547;SDS011;68292;49.600;8.746;2023-11-18T21:03:47;2.90;;;2.60;;
28547;SDS011;68292;49.600;8.746;2023-11-18T21:06:16;4.73;;;2.47;;
28547;SDS011;68292;49.600;8.746;2023-11-18T21:08:48;2.70;;;2.50;;
28547;SDS011;68292;49.600;8.746;2023-11-18T21:11:17;2.93;;;2.63;;
